sensor_id;sensor_type;location;lat;lon;timestamp;P1;durP1;ratioP1;P2;durP2;ratioP2
35530;SDS011;21637;53.352;-6.356;2023-04-25T00:01:12;9.35;;;3.70;;
35530;SDS011;21637;53.352;-6.356;2023-04-25T00:03:38;9.60;;;3.70;;
35530;SDS011;21637;53.352;-6.356;2023-04-25T00:06:05;10.13;;;4.15;;
35530;SDS011;21637;53.352;-6.356;2023-04-25T00:08:31;11.50;;;3.20;;
35530;SDS011;21637;53.352;-6.356;2023-04-25T00:10:57;8.98;;;4.00;;
35530;SDS011;21637;53.352;-6.356;2023-04-25T00:13:24;8.07;;;3.67;;
35530;SDS011;21637;53.352;-6.356;2023-04-25T00:15:50;12.85;;;4.53;;
35530;SDS011;21637;53.352;-6.356;2023-04-25T00:18:18;12.60;;;4.50;;
35530;SDS011;21637;53.352;-6.356;2023-04-25T00:20:44;12.73;;;4.68;;
35530;SDS011;21637;53.352;-6.356;2023-04-25T00:23:12;11.20;;;4.13;;
35530;SDS011;21637;53.352;-6.356;2023-04-25T00:25:42;11.95;;;4.50;;
35530;SDS011;21637;53.352;-6.356;2023-04-25T00:30:40;5.65;;;3.00;;
35530;SDS011;21637;53.352;-6.356;2023-04-25T00:33:07;3.10;;;1.83;;
35530;SDS011;21637;53.352;-6.356;2023-04-25T00:35:33;4.78;;;1.88;;
35530;SDS011;21637;53.352;-6.356;2023-04-25T00:37:59;2.65;;;2.40;;
35530;SDS011;21637;53.352;-6.356;2023-04-25T00:40:25;2.50;;;1.85;;
35530;SDS011;21637;53.352;-6.356;2023-04-25T00:42:52;1.98;;;1.75;;
35530;SDS011;21637;53.352;-6.356;2023-04-25T00:45:18;7.85;;;3.25;;
35530;SDS011;21637;53.352;-6.356;2023-04-25T00:47:44;8.27;;;2.90;;
35530;SDS011;21637;53.352;-6.356;2023-04-25T00:50:11;10.60;;;3.53;;
35530;SDS011;21637;53.352;-6.356;2023-04-25T00:52:37;4.80;;;2.08;;
35530;SDS011;21637;53.352;-6.356;2023-04-25T00:55:05;4.13;;;2.03;;
35530;SDS011;21637;53.352;-6.356;2023-04-25T00:57:32;3.28;;;1.65;;
35530;SDS011;21637;53.352;-6.356;2023-04-25T00:59:58;3.72;;;1.88;;
35530;SDS011;21637;53.352;-6.356;2023-04-25T01:02:24;4.00;;;1.73;;
35530;SDS011;21637;53.352;-6.356;2023-04-25T01:04:52;3.10;;;1.55;;
35530;SDS011;21637;53.352;-6.356;2023-04-25T01:07:18;5.65;;;1.80;;
35530;SDS011;21637;53.352;-6.356;2023-04-25T01:09:45;3.35;;;1.88;;
35530;SDS011;21637;53.352;-6.356;2023-04-25T01:12:11;2.80;;;2.10;;
35530;SDS011;21637;53.352;-6.356;2023-04-25T01:14:37;2.58;;;2.00;;
35530;SDS011;21637;53.352;-6.356;2023-04-25T01:17:03;6.20;;;2.35;;
35530;SDS011;21637;53.352;-6.356;2023-04-25T01:19:29;3.88;;;2.25;;
35530;SDS011;21637;53.352;-6.356;2023-04-25T01:21:55;2.15;;;1.75;;
35530;SDS011;21637;53.352;-6.356;2023-04-25T01:24:21;3.15;;;2.25;;
35530;SDS011;21637;53.352;-6.356;2023-04-25T01:26:47;3.50;;;2.45;;
35530;SDS011;21637;53.352;-6.356;2023-04-25T01:29:18;2.78;;;2.40;;
35530;SDS011;21637;53.352;-6.356;2023-04-25T01:31:45;2.22;;;2.08;;
35530;SDS011;21637;53.352;-6.356;2023-04-25T01:34:12;5.57;;;2.65;;
35530;SDS011;21637;53.352;-6.356;2023-04-25T01:36:38;4.38;;;2.60;;
35530;SDS011;21637;53.352;-6.356;2023-04-25T01:39:04;3.90;;;2.55;;
35530;SDS011;21637;53.352;-6.356;2023-04-25T01:41:30;3.60;;;2.40;;
35530;SDS011;21637;53.352;-6.356;2023-04-25T01:43:56;5.35;;;3.28;;
35530;SDS011;21637;53.352;-6.356;2023-04-25T01:46:22;3.65;;;2.58;;
35530;SDS011;21637;53.352;-6.356;2023-04-25T01:48:48;8.98;;;4.40;;
35530;SDS011;21637;53.352;-6.356;2023-04-25T01:51:14;7.53;;;4.15;;
35530;SDS011;21637;53.352;-6.356;2023-04-25T01:53:40;7.93;;;5.00;;
35530;SDS011;21637;53.352;-6.356;2023-04-25T01:56:07;7.85;;;4.78;;
35530;SDS011;21637;53.352;-6.356;2023-04-25T01:58:33;10.07;;;6.00;;
35530;SDS011;21637;53.352;-6.356;2023-04-25T02:00:58;6.40;;;4.88;;
35530;SDS011;21637;53.352;-6.356;2023-04-25T02:03:24;8.13;;;5.05;;
35530;SDS011;21637;53.352;-6.356;2023-04-25T02:05:50;8.10;;;4.70;;
35530;SDS011;21637;53.352;-6.356;2023-04-25T02:08:16;5.93;;;4.20;;
35530;SDS011;21637;53.352;-6.356;2023-04-25T02:10:42;7.68;;;4.15;;
35530;SDS011;21637;53.352;-6.356;2023-04-25T02:13:08;7.63;;;3.95;;
35530;SDS011;21637;53.352;-6.356;2023-04-25T02:15:34;7.03;;;4.55;;
35530;SDS011;21637;53.352;-6.356;2023-04-25T02:18:00;6.18;;;3.63;;
35530;SDS011;21637;53.352;-6.356;2023-04-25T02:20:27;7.63;;;4.18;;
35530;SDS011;21637;53.352;-6.356;2023-04-25T02:22:53;7.72;;;4.45;;
35530;SDS011;21637;53.352;-6.356;2023-04-25T02:25:19;6.70;;;4.57;;
35530;SDS011;21637;53.352;-6.356;2023-04-25T02:27:46;8.18;;;4.82;;
35530;SDS011;21637;53.352;-6.356;2023-04-25T02:30:13;8.10;;;5.32;;
35530;SDS011;21637;53.352;-6.356;2023-04-25T02:32:39;7.28;;;4.88;;
35530;SDS011;21637;53.352;-6.356;2023-04-25T02:35:06;7.72;;;5.35;;
35530;SDS011;21637;53.352;-6.356;2023-04-25T02:37:32;9.65;;;5.63;;
35530;SDS011;21637;53.352;-6.356;2023-04-25T02:39:59;7.90;;;5.30;;
35530;SDS011;21637;53.352;-6.356;2023-04-25T02:42:26;8.38;;;6.03;;
35530;SDS011;21637;53.352;-6.356;2023-04-25T02:44:52;8.82;;;6.32;;
35530;SDS011;21637;53.352;-6.356;2023-04-25T02:47:18;9.50;;;5.93;;
35530;SDS011;21637;53.352;-6.356;2023-04-25T02:49:43;8.63;;;6.00;;
35530;SDS011;21637;53.352;-6.356;2023-04-25T02:52:10;10.90;;;6.22;;
35530;SDS011;21637;53.352;-6.356;2023-04-25T02:54:36;9.85;;;6.85;;
35530;SDS011;21637;53.352;-6.356;2023-04-25T02:57:02;11.70;;;6.95;;
35530;SDS011;21637;53.352;-6.356;2023-04-25T02:59:28;11.18;;;6.40;;
35530;SDS011;21637;53.352;-6.356;2023-04-25T03:01:54;9.82;;;6.78;;
35530;SDS011;21637;53.352;-6.356;2023-04-25T03:04:19;8.32;;;5.88;;
35530;SDS011;21637;53.352;-6.356;2023-04-25T03:06:45;7.05;;;4.93;;
35530;SDS011;21637;53.352;-6.356;2023-04-25T03:09:11;6.80;;;5.32;;
35530;SDS011;21637;53.352;-6.356;2023-04-25T03:11:40;8.90;;;5.60;;
35530;SDS011;21637;53.352;-6.356;2023-04-25T03:14:06;8.68;;;5.60;;
35530;SDS011;21637;53.352;-6.356;2023-04-25T03:16:31;8.77;;;6.38;;
35530;SDS011;21637;53.352;-6.356;2023-04-25T03:18:57;9.43;;;6.10;;
35530;SDS011;21637;53.352;-6.356;2023-04-25T03:21:23;10.55;;;6.82;;
35530;SDS011;21637;53.352;-6.356;2023-04-25T03:23:49;10.45;;;6.63;;
35530;SDS011;21637;53.352;-6.356;2023-04-25T03:26:15;7.63;;;6.10;;
35530;SDS011;21637;53.352;-6.356;2023-04-25T03:28:41;8.68;;;5.90;;
35530;SDS011;21637;53.352;-6.356;2023-04-25T03:31:07;12.25;;;6.88;;
35530;SDS011;21637;53.352;-6.356;2023-04-25T03:33:32;9.25;;;5.90;;
35530;SDS011;21637;53.352;-6.356;2023-04-25T03:35:58;8.73;;;6.38;;
35530;SDS011;21637;53.352;-6.356;2023-04-25T03:38:24;8.48;;;5.28;;
35530;SDS011;21637;53.352;-6.356;2023-04-25T03:40:50;9.90;;;5.97;;
35530;SDS011;21637;53.352;-6.356;2023-04-25T03:43:16;10.20;;;6.03;;
35530;SDS011;21637;53.352;-6.356;2023-04-25T03:45:42;7.82;;;5.95;;
35530;SDS011;21637;53.352;-6.356;2023-04-25T03:48:08;9.55;;;6.43;;
35530;SDS011;21637;53.352;-6.356;2023-04-25T03:50:33;8.15;;;6.07;;
35530;SDS011;21637;53.352;-6.356;2023-04-25T03:53:00;9.50;;;5.78;;
35530;SDS011;21637;53.352;-6.356;2023-04-25T03:55:26;9.00;;;6.28;;
35530;SDS011;21637;53.352;-6.356;2023-04-25T03:57:51;9.40;;;6.35;;
35530;SDS011;21637;53.352;-6.356;2023-04-25T04:00:17;9.18;;;6.63;;
35530;SDS011;21637;53.352;-6.356;2023-04-25T04:02:43;11.70;;;6.20;;
35530;SDS011;21637;53.352;-6.356;2023-04-25T04:05:08;13.32;;;6.40;;
35530;SDS011;21637;53.352;-6.356;2023-04-25T04:07:34;8.73;;;5.97;;
35530;SDS011;21637;53.352;-6.356;2023-04-25T04:10:05;11.15;;;6.00;;
35530;SDS011;21637;53.352;-6.356;2023-04-25T04:12:32;8.73;;;6.30;;
35530;SDS011;21637;53.352;-6.356;2023-04-25T04:14:58;12.38;;;6.20;;
35530;SDS011;21637;53.352;-6.356;2023-04-25T04:17:24;13.18;;;6.13;;
35530;SDS011;21637;53.352;-6.356;2023-04-25T04:19:50;10.18;;;6.18;;
35530;SDS011;21637;53.352;-6.356;2023-04-25T04:22:15;9.80;;;7.10;;
35530;SDS011;21637;53.352;-6.356;2023-04-25T04:24:41;10.00;;;6.60;;
35530;SDS011;21637;53.352;-6.356;2023-04-25T04:27:11;11.50;;;7.60;;
35530;SDS011;21637;53.352;-6.356;2023-04-25T04:29:38;10.85;;;7.38;;
35530;SDS011;21637;53.352;-6.356;2023-04-25T04:32:04;12.90;;;7.10;;
35530;SDS011;21637;53.352;-6.356;2023-04-25T04:34:29;15.52;;;7.68;;
35530;SDS011;21637;53.352;-6.356;2023-04-25T04:36:56;15.85;;;8.15;;
35530;SDS011;21637;53.352;-6.356;2023-04-25T04:39:22;10.48;;;7.03;;
35530;SDS011;21637;53.352;-6.356;2023-04-25T04:41:47;9.68;;;6.80;;
35530;SDS011;21637;53.352;-6.356;2023-04-25T04:44:13;11.70;;;6.80;;
35530;SDS011;21637;53.352;-6.356;2023-04-25T04:46:39;14.88;;;8.30;;
35530;SDS011;21637;53.352;-6.356;2023-04-25T04:49:09;13.20;;;7.57;;
35530;SDS011;21637;53.352;-6.356;2023-04-25T04:51:36;13.35;;;7.55;;
35530;SDS011;21637;53.352;-6.356;2023-04-25T04:54:02;12.77;;;7.47;;
35530;SDS011;21637;53.352;-6.356;2023-04-25T04:56:31;13.13;;;7.28;;
35530;SDS011;21637;53.352;-6.356;2023-04-25T04:58:57;12.52;;;7.72;;
35530;SDS011;21637;53.352;-6.356;2023-04-25T05:01:24;11.93;;;7.75;;
35530;SDS011;21637;53.352;-6.356;2023-04-25T05:03:50;12.48;;;7.50;;
35530;SDS011;21637;53.352;-6.356;2023-04-25T05:06:17;11.07;;;7.57;;
35530;SDS011;21637;53.352;-6.356;2023-04-25T05:08:43;11.27;;;7.95;;
35530;SDS011;21637;53.352;-6.356;2023-04-25T05:11:09;13.73;;;8.65;;
35530;SDS011;21637;53.352;-6.356;2023-04-25T05:13:36;15.43;;;8.15;;
35530;SDS011;21637;53.352;-6.356;2023-04-25T05:16:02;16.38;;;8.70;;
35530;SDS011;21637;53.352;-6.356;2023-04-25T05:18:27;12.57;;;8.38;;
35530;SDS011;21637;53.352;-6.356;2023-04-25T05:20:53;11.05;;;7.45;;
35530;SDS011;21637;53.352;-6.356;2023-04-25T05:23:19;14.68;;;9.55;;
35530;SDS011;21637;53.352;-6.356;2023-04-25T05:25:44;17.00;;;9.73;;
35530;SDS011;21637;53.352;-6.356;2023-04-25T05:28:11;23.10;;;10.90;;
35530;SDS011;21637;53.352;-6.356;2023-04-25T05:30:38;25.77;;;11.55;;
35530;SDS011;21637;53.352;-6.356;2023-04-25T05:33:04;14.43;;;8.40;;
35530;SDS011;21637;53.352;-6.356;2023-04-25T05:35:29;15.95;;;9.88;;
35530;SDS011;21637;53.352;-6.356;2023-04-25T05:37:55;16.40;;;9.35;;
35530;SDS011;21637;53.352;-6.356;2023-04-25T05:40:21;15.68;;;8.95;;
35530;SDS011;21637;53.352;-6.356;2023-04-25T05:42:47;17.75;;;9.35;;
35530;SDS011;21637;53.352;-6.356;2023-04-25T05:45:12;27.42;;;11.60;;
35530;SDS011;21637;53.352;-6.356;2023-04-25T05:47:38;20.70;;;10.38;;
35530;SDS011;21637;53.352;-6.356;2023-04-25T05:50:04;15.77;;;8.82;;
35530;SDS011;21637;53.352;-6.356;2023-04-25T05:52:31;20.05;;;11.27;;
35530;SDS011;21637;53.352;-6.356;2023-04-25T05:54:56;20.33;;;10.63;;
35530;SDS011;21637;53.352;-6.356;2023-04-25T05:57:23;24.98;;;11.25;;
35530;SDS011;21637;53.352;-6.356;2023-04-25T05:59:50;30.65;;;13.52;;
35530;SDS011;21637;53.352;-6.356;2023-04-25T06:02:15;29.73;;;14.88;;
35530;SDS011;21637;53.352;-6.356;2023-04-25T06:04:42;22.92;;;12.73;;
35530;SDS011;21637;53.352;-6.356;2023-04-25T06:07:08;29.42;;;14.40;;
35530;SDS011;21637;53.352;-6.356;2023-04-25T06:09:33;29.83;;;14.15;;
35530;SDS011;21637;53.352;-6.356;2023-04-25T06:11:59;19.50;;;10.55;;
35530;SDS011;21637;53.352;-6.356;2023-04-25T06:14:26;24.80;;;11.23;;
35530;SDS011;21637;53.352;-6.356;2023-04-25T06:16:52;16.52;;;10.00;;
35530;SDS011;21637;53.352;-6.356;2023-04-25T06:19:18;16.77;;;9.00;;
35530;SDS011;21637;53.352;-6.356;2023-04-25T06:21:44;19.48;;;9.73;;
35530;SDS011;21637;53.352;-6.356;2023-04-25T06:24:10;20.98;;;10.70;;
35530;SDS011;21637;53.352;-6.356;2023-04-25T06:26:35;18.38;;;9.65;;
35530;SDS011;21637;53.352;-6.356;2023-04-25T06:29:01;19.70;;;9.00;;
35530;SDS011;21637;53.352;-6.356;2023-04-25T06:31:27;18.52;;;8.60;;
35530;SDS011;21637;53.352;-6.356;2023-04-25T06:33:54;16.98;;;7.63;;
35530;SDS011;21637;53.352;-6.356;2023-04-25T06:36:20;11.05;;;7.00;;
35530;SDS011;21637;53.352;-6.356;2023-04-25T06:41:18;9.90;;;7.28;;
35530;SDS011;21637;53.352;-6.356;2023-04-25T06:43:44;9.70;;;6.75;;
35530;SDS011;21637;53.352;-6.356;2023-04-25T06:46:10;14.05;;;6.97;;
35530;SDS011;21637;53.352;-6.356;2023-04-25T06:48:36;11.57;;;6.85;;
35530;SDS011;21637;53.352;-6.356;2023-04-25T06:51:02;12.02;;;6.93;;
35530;SDS011;21637;53.352;-6.356;2023-04-25T06:53:28;10.10;;;6.50;;
35530;SDS011;21637;53.352;-6.356;2023-04-25T06:55:54;9.75;;;6.32;;
35530;SDS011;21637;53.352;-6.356;2023-04-25T06:58:19;10.15;;;6.15;;
35530;SDS011;21637;53.352;-6.356;2023-04-25T07:00:45;9.60;;;6.60;;
35530;SDS011;21637;53.352;-6.356;2023-04-25T07:03:11;11.38;;;6.32;;
35530;SDS011;21637;53.352;-6.356;2023-04-25T07:05:36;10.88;;;6.03;;
35530;SDS011;21637;53.352;-6.356;2023-04-25T07:08:02;9.63;;;6.20;;
35530;SDS011;21637;53.352;-6.356;2023-04-25T07:10:28;10.48;;;6.50;;
35530;SDS011;21637;53.352;-6.356;2023-04-25T07:12:54;8.65;;;6.28;;
35530;SDS011;21637;53.352;-6.356;2023-04-25T07:15:20;11.75;;;6.60;;
35530;SDS011;21637;53.352;-6.356;2023-04-25T07:17:46;11.77;;;6.78;;
35530;SDS011;21637;53.352;-6.356;2023-04-25T07:20:12;9.52;;;6.32;;
35530;SDS011;21637;53.352;-6.356;2023-04-25T07:22:38;10.18;;;5.97;;
35530;SDS011;21637;53.352;-6.356;2023-04-25T07:25:03;9.85;;;6.50;;
35530;SDS011;21637;53.352;-6.356;2023-04-25T07:27:30;8.30;;;5.30;;
35530;SDS011;21637;53.352;-6.356;2023-04-25T07:29:56;8.30;;;5.53;;
35530;SDS011;21637;53.352;-6.356;2023-04-25T07:32:22;11.32;;;5.35;;
35530;SDS011;21637;53.352;-6.356;2023-04-25T07:34:48;11.80;;;6.28;;
35530;SDS011;21637;53.352;-6.356;2023-04-25T07:37:14;10.90;;;6.40;;
35530;SDS011;21637;53.352;-6.356;2023-04-25T07:39:40;10.90;;;5.18;;
35530;SDS011;21637;53.352;-6.356;2023-04-25T07:42:06;6.82;;;5.35;;
35530;SDS011;21637;53.352;-6.356;2023-04-25T07:44:35;9.18;;;5.22;;
35530;SDS011;21637;53.352;-6.356;2023-04-25T07:47:05;9.13;;;5.20;;
35530;SDS011;21637;53.352;-6.356;2023-04-25T07:49:35;8.98;;;5.15;;
35530;SDS011;21637;53.352;-6.356;2023-04-25T07:52:02;8.13;;;5.15;;
35530;SDS011;21637;53.352;-6.356;2023-04-25T07:54:29;8.27;;;4.43;;
35530;SDS011;21637;53.352;-6.356;2023-04-25T07:56:55;11.70;;;4.85;;
35530;SDS011;21637;53.352;-6.356;2023-04-25T07:59:21;8.18;;;4.35;;
35530;SDS011;21637;53.352;-6.356;2023-04-25T08:01:46;12.98;;;5.05;;
35530;SDS011;21637;53.352;-6.356;2023-04-25T08:04:12;10.38;;;5.50;;
35530;SDS011;21637;53.352;-6.356;2023-04-25T08:06:38;10.75;;;5.30;;
35530;SDS011;21637;53.352;-6.356;2023-04-25T08:09:05;7.30;;;4.65;;
35530;SDS011;21637;53.352;-6.356;2023-04-25T08:11:31;8.80;;;4.63;;
35530;SDS011;21637;53.352;-6.356;2023-04-25T08:13:56;8.02;;;4.35;;
35530;SDS011;21637;53.352;-6.356;2023-04-25T08:16:22;7.05;;;4.15;;
35530;SDS011;21637;53.352;-6.356;2023-04-25T08:18:49;8.30;;;3.63;;
35530;SDS011;21637;53.352;-6.356;2023-04-25T08:21:15;7.15;;;3.88;;
35530;SDS011;21637;53.352;-6.356;2023-04-25T08:23:41;8.80;;;3.53;;
35530;SDS011;21637;53.352;-6.356;2023-04-25T08:26:07;8.10;;;3.17;;
35530;SDS011;21637;53.352;-6.356;2023-04-25T08:28:32;8.95;;;4.05;;
35530;SDS011;21637;53.352;-6.356;2023-04-25T08:30:58;9.30;;;4.28;;
35530;SDS011;21637;53.352;-6.356;2023-04-25T08:33:24;7.82;;;4.28;;
35530;SDS011;21637;53.352;-6.356;2023-04-25T08:35:50;8.73;;;4.18;;
35530;SDS011;21637;53.352;-6.356;2023-04-25T08:38:17;9.77;;;4.30;;
35530;SDS011;21637;53.352;-6.356;2023-04-25T08:40:45;8.70;;;4.30;;
35530;SDS011;21637;53.352;-6.356;2023-04-25T08:43:15;8.63;;;4.10;;
35530;SDS011;21637;53.352;-6.356;2023-04-25T08:45:43;8.75;;;4.10;;
35530;SDS011;21637;53.352;-6.356;2023-04-25T08:48:12;10.45;;;3.97;;
35530;SDS011;21637;53.352;-6.356;2023-04-25T08:50:45;11.93;;;4.53;;
35530;SDS011;21637;53.352;-6.356;2023-04-25T08:53:22;11.90;;;3.75;;
35530;SDS011;21637;53.352;-6.356;2023-04-25T08:55:53;9.75;;;4.07;;
35530;SDS011;21637;53.352;-6.356;2023-04-25T08:58:20;9.82;;;4.30;;
35530;SDS011;21637;53.352;-6.356;2023-04-25T09:00:47;6.82;;;4.22;;
35530;SDS011;21637;53.352;-6.356;2023-04-25T09:03:13;13.73;;;4.95;;
35530;SDS011;21637;53.352;-6.356;2023-04-25T09:05:40;10.45;;;5.18;;
35530;SDS011;21637;53.352;-6.356;2023-04-25T09:08:06;14.38;;;5.53;;
35530;SDS011;21637;53.352;-6.356;2023-04-25T09:10:32;12.75;;;5.25;;
35530;SDS011;21637;53.352;-6.356;2023-04-25T09:13:12;14.00;;;5.38;;
35530;SDS011;21637;53.352;-6.356;2023-04-25T09:15:53;14.15;;;5.88;;
35530;SDS011;21637;53.352;-6.356;2023-04-25T09:18:26;9.88;;;5.63;;
35530;SDS011;21637;53.352;-6.356;2023-04-25T09:20:53;9.48;;;5.07;;
35530;SDS011;21637;53.352;-6.356;2023-04-25T09:23:22;6.28;;;4.07;;
35530;SDS011;21637;53.352;-6.356;2023-04-25T09:25:50;8.07;;;5.20;;
35530;SDS011;21637;53.352;-6.356;2023-04-25T09:28:22;9.73;;;4.50;;
35530;SDS011;21637;53.352;-6.356;2023-04-25T09:30:54;9.30;;;4.45;;
35530;SDS011;21637;53.352;-6.356;2023-04-25T09:33:23;4.20;;;2.30;;
35530;SDS011;21637;53.352;-6.356;2023-04-25T09:36:16;4.90;;;2.00;;
35530;SDS011;21637;53.352;-6.356;2023-04-25T09:38:46;5.53;;;1.98;;
35530;SDS011;21637;53.352;-6.356;2023-04-25T09:41:11;6.28;;;2.60;;
35530;SDS011;21637;53.352;-6.356;2023-04-25T09:43:37;4.47;;;1.85;;
35530;SDS011;21637;53.352;-6.356;2023-04-25T09:46:08;6.97;;;2.10;;
35530;SDS011;21637;53.352;-6.356;2023-04-25T09:48:34;4.85;;;2.28;;
35530;SDS011;21637;53.352;-6.356;2023-04-25T09:56:00;7.88;;;2.42;;
35530;SDS011;21637;53.352;-6.356;2023-04-25T09:58:32;5.17;;;2.10;;
35530;SDS011;21637;53.352;-6.356;2023-04-25T10:01:03;7.60;;;2.38;;
35530;SDS011;21637;53.352;-6.356;2023-04-25T10:03:33;9.68;;;2.53;;
35530;SDS011;21637;53.352;-6.356;2023-04-25T10:06:01;5.00;;;2.20;;
35530;SDS011;21637;53.352;-6.356;2023-04-25T10:08:31;6.72;;;1.98;;
35530;SDS011;21637;53.352;-6.356;2023-04-25T10:11:02;6.65;;;2.17;;
35530;SDS011;21637;53.352;-6.356;2023-04-25T10:13:32;6.63;;;2.05;;
35530;SDS011;21637;53.352;-6.356;2023-04-25T10:15:59;8.25;;;1.88;;
35530;SDS011;21637;53.352;-6.356;2023-04-25T10:18:30;7.60;;;2.45;;
35530;SDS011;21637;53.352;-6.356;2023-04-25T10:21:04;7.10;;;1.92;;
35530;SDS011;21637;53.352;-6.356;2023-04-25T10:23:31;6.85;;;2.55;;
35530;SDS011;21637;53.352;-6.356;2023-04-25T10:25:59;4.72;;;2.13;;
35530;SDS011;21637;53.352;-6.356;2023-04-25T10:28:25;5.88;;;2.08;;
35530;SDS011;21637;53.352;-6.356;2023-04-25T10:33:57;3.75;;;1.90;;
35530;SDS011;21637;53.352;-6.356;2023-04-25T10:36:19;7.47;;;2.03;;
35530;SDS011;21637;53.352;-6.356;2023-04-25T10:38:47;5.05;;;2.00;;
35530;SDS011;21637;53.352;-6.356;2023-04-25T10:41:16;3.88;;;2.15;;
35530;SDS011;21637;53.352;-6.356;2023-04-25T10:43:44;3.13;;;1.77;;
35530;SDS011;21637;53.352;-6.356;2023-04-25T10:48:43;5.70;;;1.73;;
35530;SDS011;21637;53.352;-6.356;2023-04-25T10:51:31;4.50;;;2.00;;
35530;SDS011;21637;53.352;-6.356;2023-04-25T10:53:58;5.60;;;1.60;;
35530;SDS011;21637;53.352;-6.356;2023-04-25T10:56:26;5.35;;;2.00;;
35530;SDS011;21637;53.352;-6.356;2023-04-25T11:01:51;5.72;;;1.98;;
35530;SDS011;21637;53.352;-6.356;2023-04-25T11:04:28;7.50;;;2.17;;
35530;SDS011;21637;53.352;-6.356;2023-04-25T11:09:39;5.20;;;1.80;;
35530;SDS011;21637;53.352;-6.356;2023-04-25T11:12:07;4.05;;;1.38;;
35530;SDS011;21637;53.352;-6.356;2023-04-25T11:14:34;9.50;;;2.10;;
35530;SDS011;21637;53.352;-6.356;2023-04-25T11:17:00;19.60;;;2.42;;
35530;SDS011;21637;53.352;-6.356;2023-04-25T11:19:27;6.93;;;1.85;;
35530;SDS011;21637;53.352;-6.356;2023-04-25T11:21:57;2.85;;;1.83;;
35530;SDS011;21637;53.352;-6.356;2023-04-25T11:24:28;4.75;;;1.70;;
35530;SDS011;21637;53.352;-6.356;2023-04-25T11:26:59;6.28;;;1.95;;
35530;SDS011;21637;53.352;-6.356;2023-04-25T11:29:29;3.17;;;1.48;;
35530;SDS011;21637;53.352;-6.356;2023-04-25T11:31:55;4.53;;;1.70;;
35530;SDS011;21637;53.352;-6.356;2023-04-25T11:34:25;4.22;;;1.60;;
35530;SDS011;21637;53.352;-6.356;2023-04-25T11:36:51;6.47;;;1.70;;
35530;SDS011;21637;53.352;-6.356;2023-04-25T11:39:18;4.18;;;1.58;;
35530;SDS011;21637;53.352;-6.356;2023-04-25T11:41:45;5.57;;;1.42;;
35530;SDS011;21637;53.352;-6.356;2023-04-25T11:44:11;2.53;;;1.40;;
35530;SDS011;21637;53.352;-6.356;2023-04-25T11:46:40;5.45;;;1.40;;
35530;SDS011;21637;53.352;-6.356;2023-04-25T11:49:06;2.85;;;1.67;;
35530;SDS011;21637;53.352;-6.356;2023-04-25T11:51:37;6.75;;;1.70;;
35530;SDS011;21637;53.352;-6.356;2023-04-25T11:54:05;4.68;;;1.73;;
35530;SDS011;21637;53.352;-6.356;2023-04-25T11:56:31;3.78;;;2.10;;
35530;SDS011;21637;53.352;-6.356;2023-04-25T11:58:58;5.57;;;1.92;;
35530;SDS011;21637;53.352;-6.356;2023-04-25T12:01:34;6.47;;;1.90;;
35530;SDS011;21637;53.352;-6.356;2023-04-25T12:06:39;8.18;;;2.28;;
35530;SDS011;21637;53.352;-6.356;2023-04-25T12:09:12;6.90;;;2.05;;
35530;SDS011;21637;53.352;-6.356;2023-04-25T12:11:45;7.95;;;1.83;;
35530;SDS011;21637;53.352;-6.356;2023-04-25T12:14:36;7.13;;;2.20;;
35530;SDS011;21637;53.352;-6.356;2023-04-25T12:17:02;4.50;;;2.13;;
35530;SDS011;21637;53.352;-6.356;2023-04-25T12:19:35;4.47;;;2.40;;
35530;SDS011;21637;53.352;-6.356;2023-04-25T12:22:02;4.15;;;1.88;;
35530;SDS011;21637;53.352;-6.356;2023-04-25T12:24:28;4.88;;;2.00;;
35530;SDS011;21637;53.352;-6.356;2023-04-25T12:27:01;6.43;;;2.13;;
35530;SDS011;21637;53.352;-6.356;2023-04-25T12:29:30;5.03;;;2.15;;
35530;SDS011;21637;53.352;-6.356;2023-04-25T12:31:57;6.10;;;2.00;;
35530;SDS011;21637;53.352;-6.356;2023-04-25T12:34:23;10.27;;;2.67;;
35530;SDS011;21637;53.352;-6.356;2023-04-25T12:36:50;5.35;;;2.20;;
35530;SDS011;21637;53.352;-6.356;2023-04-25T12:39:20;7.28;;;2.10;;
35530;SDS011;21637;53.352;-6.356;2023-04-25T12:41:47;9.35;;;2.85;;
35530;SDS011;21637;53.352;-6.356;2023-04-25T12:44:13;4.32;;;2.58;;
35530;SDS011;21637;53.352;-6.356;2023-04-25T12:46:39;7.10;;;2.50;;
35530;SDS011;21637;53.352;-6.356;2023-04-25T12:49:06;5.57;;;2.20;;
35530;SDS011;21637;53.352;-6.356;2023-04-25T12:51:33;5.32;;;2.28;;
35530;SDS011;21637;53.352;-6.356;2023-04-25T12:54:00;8.13;;;2.33;;
35530;SDS011;21637;53.352;-6.356;2023-04-25T12:56:27;5.95;;;2.50;;
35530;SDS011;21637;53.352;-6.356;2023-04-25T12:58:53;7.40;;;2.15;;
35530;SDS011;21637;53.352;-6.356;2023-04-25T13:01:20;8.82;;;2.13;;
35530;SDS011;21637;53.352;-6.356;2023-04-25T13:03:46;6.60;;;2.35;;
35530;SDS011;21637;53.352;-6.356;2023-04-25T13:06:13;3.28;;;1.95;;
35530;SDS011;21637;53.352;-6.356;2023-04-25T13:08:39;6.95;;;2.10;;
35530;SDS011;21637;53.352;-6.356;2023-04-25T13:11:06;7.13;;;2.35;;
35530;SDS011;21637;53.352;-6.356;2023-04-25T13:13:32;4.78;;;1.70;;
35530;SDS011;21637;53.352;-6.356;2023-04-25T13:16:00;6.07;;;1.88;;
35530;SDS011;21637;53.352;-6.356;2023-04-25T13:18:27;7.65;;;2.42;;
35530;SDS011;21637;53.352;-6.356;2023-04-25T13:20:56;7.93;;;2.22;;
35530;SDS011;21637;53.352;-6.356;2023-04-25T13:23:22;8.23;;;2.03;;
35530;SDS011;21637;53.352;-6.356;2023-04-25T13:25:50;9.73;;;2.95;;
35530;SDS011;21637;53.352;-6.356;2023-04-25T13:28:15;7.93;;;2.00;;
35530;SDS011;21637;53.352;-6.356;2023-04-25T13:30:41;7.50;;;2.10;;
35530;SDS011;21637;53.352;-6.356;2023-04-25T13:33:07;5.22;;;2.10;;
35530;SDS011;21637;53.352;-6.356;2023-04-25T13:35:34;6.07;;;2.28;;
35530;SDS011;21637;53.352;-6.356;2023-04-25T13:38:00;6.43;;;3.03;;
35530;SDS011;21637;53.352;-6.356;2023-04-25T13:40:26;9.70;;;2.60;;
35530;SDS011;21637;53.352;-6.356;2023-04-25T13:42:52;7.32;;;2.80;;
35530;SDS011;21637;53.352;-6.356;2023-04-25T13:45:18;5.75;;;2.50;;
35530;SDS011;21637;53.352;-6.356;2023-04-25T13:47:45;10.40;;;2.85;;
35530;SDS011;21637;53.352;-6.356;2023-04-25T13:50:11;11.38;;;2.70;;
35530;SDS011;21637;53.352;-6.356;2023-04-25T13:52:38;9.10;;;3.08;;
35530;SDS011;21637;53.352;-6.356;2023-04-25T13:55:05;7.88;;;2.90;;
35530;SDS011;21637;53.352;-6.356;2023-04-25T13:57:32;8.85;;;3.92;;
35530;SDS011;21637;53.352;-6.356;2023-04-25T13:59:58;8.80;;;2.60;;
35530;SDS011;21637;53.352;-6.356;2023-04-25T14:02:24;11.02;;;3.28;;
35530;SDS011;21637;53.352;-6.356;2023-04-25T14:04:50;8.20;;;3.10;;
35530;SDS011;21637;53.352;-6.356;2023-04-25T14:07:16;11.52;;;3.38;;
35530;SDS011;21637;53.352;-6.356;2023-04-25T14:09:46;14.55;;;3.90;;
35530;SDS011;21637;53.352;-6.356;2023-04-25T14:12:12;7.70;;;2.88;;
35530;SDS011;21637;53.352;-6.356;2023-04-25T14:14:37;8.35;;;3.05;;
35530;SDS011;21637;53.352;-6.356;2023-04-25T14:17:03;12.43;;;3.33;;
35530;SDS011;21637;53.352;-6.356;2023-04-25T14:19:29;9.02;;;3.17;;
35530;SDS011;21637;53.352;-6.356;2023-04-25T14:21:55;9.10;;;2.90;;
35530;SDS011;21637;53.352;-6.356;2023-04-25T14:24:21;9.27;;;2.78;;
35530;SDS011;21637;53.352;-6.356;2023-04-25T14:26:47;5.82;;;2.97;;
35530;SDS011;21637;53.352;-6.356;2023-04-25T14:29:12;8.23;;;3.35;;
35530;SDS011;21637;53.352;-6.356;2023-04-25T14:31:39;9.48;;;2.63;;
35530;SDS011;21637;53.352;-6.356;2023-04-25T14:34:05;10.13;;;2.67;;
35530;SDS011;21637;53.352;-6.356;2023-04-25T14:36:31;7.53;;;2.35;;
35530;SDS011;21637;53.352;-6.356;2023-04-25T14:38:58;9.40;;;3.30;;
35530;SDS011;21637;53.352;-6.356;2023-04-25T14:41:24;7.65;;;2.60;;
35530;SDS011;21637;53.352;-6.356;2023-04-25T14:43:50;6.32;;;2.28;;
35530;SDS011;21637;53.352;-6.356;2023-04-25T14:46:18;4.28;;;2.30;;
35530;SDS011;21637;53.352;-6.356;2023-04-25T14:48:44;6.75;;;2.67;;
35530;SDS011;21637;53.352;-6.356;2023-04-25T14:51:10;9.15;;;2.70;;
35530;SDS011;21637;53.352;-6.356;2023-04-25T14:53:36;5.97;;;2.10;;